sensor_id;sensor_type;location;lat;lon;timestamp;P1;durP1;ratioP1;P2;durP2;ratioP2
47431;SDS011;33183;52.290;6.144;2022-08-16T00:00:16;3.85;;;3.35;;
47431;SDS011;33183;52.290;6.144;2022-08-16T00:02:43;6.88;;;3.90;;
47431;SDS011;33183;52.290;6.144;2022-08-16T00:05:08;4.65;;;3.50;;
47431;SDS011;33183;52.290;6.144;2022-08-16T00:07:35;3.50;;;3.20;;
47431;SDS011;33183;52.290;6.144;2022-08-16T00:10:03;3.70;;;3.40;;
47431;SDS011;33183;52.290;6.144;2022-08-16T00:12:29;3.95;;;3.55;;
47431;SDS011;33183;52.290;6.144;2022-08-16T00:14:56;4.30;;;3.88;;
47431;SDS011;33183;52.290;6.144;2022-08-16T00:17:21;3.90;;;3.53;;
47431;SDS011;33183;52.290;6.144;2022-08-16T00:19:47;4.57;;;3.60;;
47431;SDS011;33183;52.290;6.144;2022-08-16T00:22:12;4.10;;;3.58;;
47431;SDS011;33183;52.290;6.144;2022-08-16T00:24:38;3.78;;;3.38;;
47431;SDS011;33183;52.290;6.144;2022-08-16T00:27:03;3.65;;;3.35;;
47431;SDS011;33183;52.290;6.144;2022-08-16T00:29:29;3.67;;;3.38;;
47431;SDS011;33183;52.290;6.144;2022-08-16T00:31:54;3.80;;;3.40;;
47431;SDS011;33183;52.290;6.144;2022-08-16T00:34:20;4.13;;;3.75;;
47431;SDS011;33183;52.290;6.144;2022-08-16T00:36:46;4.13;;;3.67;;
47431;SDS011;33183;52.290;6.144;2022-08-16T00:39:14;4.22;;;3.63;;
47431;SDS011;33183;52.290;6.144;2022-08-16T00:41:41;3.80;;;3.40;;
47431;SDS011;33183;52.290;6.144;2022-08-16T00:44:08;4.20;;;3.42;;
47431;SDS011;33183;52.290;6.144;2022-08-16T00:46:38;4.72;;;3.80;;
47431;SDS011;33183;52.290;6.144;2022-08-16T00:49:13;4.28;;;3.88;;
47431;SDS011;33183;52.290;6.144;2022-08-16T00:51:38;4.03;;;3.63;;
47431;SDS011;33183;52.290;6.144;2022-08-16T00:54:05;5.35;;;3.58;;
47431;SDS011;33183;52.290;6.144;2022-08-16T00:56:32;4.03;;;3.63;;
47431;SDS011;33183;52.290;6.144;2022-08-16T00:59:00;4.90;;;3.60;;
47431;SDS011;33183;52.290;6.144;2022-08-16T01:01:25;3.65;;;3.35;;
47431;SDS011;33183;52.290;6.144;2022-08-16T01:03:51;4.68;;;3.70;;
47431;SDS011;33183;52.290;6.144;2022-08-16T01:06:18;3.72;;;3.35;;
47431;SDS011;33183;52.290;6.144;2022-08-16T01:08:44;3.88;;;3.53;;
47431;SDS011;33183;52.290;6.144;2022-08-16T01:11:11;3.83;;;3.35;;
47431;SDS011;33183;52.290;6.144;2022-08-16T01:13:37;5.72;;;3.78;;
47431;SDS011;33183;52.290;6.144;2022-08-16T01:16:07;4.30;;;3.40;;
47431;SDS011;33183;52.290;6.144;2022-08-16T01:18:43;4.15;;;3.70;;
47431;SDS011;33183;52.290;6.144;2022-08-16T01:21:13;4.07;;;3.00;;
47431;SDS011;33183;52.290;6.144;2022-08-16T01:26:35;4.63;;;3.88;;
47431;SDS011;33183;52.290;6.144;2022-08-16T01:29:03;4.35;;;3.92;;
47431;SDS011;33183;52.290;6.144;2022-08-16T01:31:31;4.05;;;3.20;;
47431;SDS011;33183;52.290;6.144;2022-08-16T01:33:56;5.03;;;3.88;;
47431;SDS011;33183;52.290;6.144;2022-08-16T01:36:22;4.13;;;3.38;;
47431;SDS011;33183;52.290;6.144;2022-08-16T01:38:48;4.35;;;3.40;;
47431;SDS011;33183;52.290;6.144;2022-08-16T01:41:15;4.70;;;3.67;;
47431;SDS011;33183;52.290;6.144;2022-08-16T01:43:43;4.50;;;3.42;;
47431;SDS011;33183;52.290;6.144;2022-08-16T01:46:18;3.83;;;3.38;;
47431;SDS011;33183;52.290;6.144;2022-08-16T01:48:46;4.72;;;3.25;;
47431;SDS011;33183;52.290;6.144;2022-08-16T01:51:13;4.57;;;3.40;;
47431;SDS011;33183;52.290;6.144;2022-08-16T01:53:41;4.13;;;3.08;;
47431;SDS011;33183;52.290;6.144;2022-08-16T01:56:08;4.90;;;3.60;;
47431;SDS011;33183;52.290;6.144;2022-08-16T01:58:33;3.90;;;3.60;;
47431;SDS011;33183;52.290;6.144;2022-08-16T02:00:59;4.32;;;3.50;;
47431;SDS011;33183;52.290;6.144;2022-08-16T02:03:24;3.92;;;3.55;;
47431;SDS011;33183;52.290;6.144;2022-08-16T02:05:49;3.63;;;3.20;;
47431;SDS011;33183;52.290;6.144;2022-08-16T02:08:15;6.68;;;3.80;;
47431;SDS011;33183;52.290;6.144;2022-08-16T02:10:40;3.58;;;3.13;;
47431;SDS011;33183;52.290;6.144;2022-08-16T02:13:06;4.43;;;4.00;;
47431;SDS011;33183;52.290;6.144;2022-08-16T02:15:33;5.65;;;3.83;;
47431;SDS011;33183;52.290;6.144;2022-08-16T02:17:59;3.63;;;3.33;;
47431;SDS011;33183;52.290;6.144;2022-08-16T02:20:26;4.22;;;3.60;;
47431;SDS011;33183;52.290;6.144;2022-08-16T02:22:54;4.88;;;3.72;;
47431;SDS011;33183;52.290;6.144;2022-08-16T02:25:21;4.20;;;3.65;;
47431;SDS011;33183;52.290;6.144;2022-08-16T02:27:47;3.97;;;3.08;;
47431;SDS011;33183;52.290;6.144;2022-08-16T02:30:15;5.25;;;3.58;;
47431;SDS011;33183;52.290;6.144;2022-08-16T02:32:42;3.53;;;3.22;;
47431;SDS011;33183;52.290;6.144;2022-08-16T02:35:08;3.67;;;3.13;;
47431;SDS011;33183;52.290;6.144;2022-08-16T02:37:34;3.60;;;3.30;;
47431;SDS011;33183;52.290;6.144;2022-08-16T02:39:59;3.63;;;3.25;;
47431;SDS011;33183;52.290;6.144;2022-08-16T02:42:25;4.32;;;3.58;;
47431;SDS011;33183;52.290;6.144;2022-08-16T02:44:50;4.53;;;3.20;;
47431;SDS011;33183;52.290;6.144;2022-08-16T02:47:15;4.85;;;3.35;;
47431;SDS011;33183;52.290;6.144;2022-08-16T02:49:40;4.72;;;3.53;;
47431;SDS011;33183;52.290;6.144;2022-08-16T02:52:07;4.53;;;3.58;;
47431;SDS011;33183;52.290;6.144;2022-08-16T02:54:34;3.63;;;3.33;;
47431;SDS011;33183;52.290;6.144;2022-08-16T02:57:00;4.15;;;3.15;;
47431;SDS011;33183;52.290;6.144;2022-08-16T02:59:25;3.78;;;3.42;;
47431;SDS011;33183;52.290;6.144;2022-08-16T03:01:51;4.00;;;3.50;;
47431;SDS011;33183;52.290;6.144;2022-08-16T03:04:16;3.50;;;3.20;;
47431;SDS011;33183;52.290;6.144;2022-08-16T03:06:42;4.05;;;3.65;;
47431;SDS011;33183;52.290;6.144;2022-08-16T03:09:07;4.82;;;3.67;;
47431;SDS011;33183;52.290;6.144;2022-08-16T03:11:32;4.50;;;3.47;;
47431;SDS011;33183;52.290;6.144;2022-08-16T03:13:57;4.28;;;3.63;;
47431;SDS011;33183;52.290;6.144;2022-08-16T03:16:23;3.47;;;3.10;;
47431;SDS011;33183;52.290;6.144;2022-08-16T03:18:49;3.90;;;3.35;;
47431;SDS011;33183;52.290;6.144;2022-08-16T03:21:14;3.65;;;3.35;;
47431;SDS011;33183;52.290;6.144;2022-08-16T03:23:39;4.55;;;3.63;;
47431;SDS011;33183;52.290;6.144;2022-08-16T03:26:05;4.05;;;3.15;;
47431;SDS011;33183;52.290;6.144;2022-08-16T03:28:30;3.78;;;3.42;;
47431;SDS011;33183;52.290;6.144;2022-08-16T03:30:56;4.00;;;3.60;;
47431;SDS011;33183;52.290;6.144;2022-08-16T03:33:21;3.58;;;3.20;;
47431;SDS011;33183;52.290;6.144;2022-08-16T03:35:46;4.18;;;3.55;;
47431;SDS011;33183;52.290;6.144;2022-08-16T03:38:13;5.95;;;4.18;;
47431;SDS011;33183;52.290;6.144;2022-08-16T03:40:39;4.15;;;3.20;;
47431;SDS011;33183;52.290;6.144;2022-08-16T03:43:06;4.05;;;3.53;;
47431;SDS011;33183;52.290;6.144;2022-08-16T03:45:32;4.07;;;3.30;;
47431;SDS011;33183;52.290;6.144;2022-08-16T03:47:58;4.07;;;3.60;;
47431;SDS011;33183;52.290;6.144;2022-08-16T03:50:24;3.92;;;3.35;;
47431;SDS011;33183;52.290;6.144;2022-08-16T03:52:50;5.78;;;3.67;;
47431;SDS011;33183;52.290;6.144;2022-08-16T03:55:15;4.35;;;3.33;;
47431;SDS011;33183;52.290;6.144;2022-08-16T03:57:41;4.97;;;3.50;;
47431;SDS011;33183;52.290;6.144;2022-08-16T04:00:07;5.13;;;3.47;;
47431;SDS011;33183;52.290;6.144;2022-08-16T04:02:39;3.78;;;3.40;;
47431;SDS011;33183;52.290;6.144;2022-08-16T04:05:05;3.75;;;3.40;;
47431;SDS011;33183;52.290;6.144;2022-08-16T04:07:31;3.58;;;3.28;;
47431;SDS011;33183;52.290;6.144;2022-08-16T04:09:56;4.13;;;3.58;;
47431;SDS011;33183;52.290;6.144;2022-08-16T04:12:22;4.57;;;3.22;;
47431;SDS011;33183;52.290;6.144;2022-08-16T04:14:47;3.90;;;3.20;;
47431;SDS011;33183;52.290;6.144;2022-08-16T04:17:13;3.70;;;3.20;;
47431;SDS011;33183;52.290;6.144;2022-08-16T04:19:39;3.88;;;3.47;;
47431;SDS011;33183;52.290;6.144;2022-08-16T04:22:05;3.38;;;3.08;;
47431;SDS011;33183;52.290;6.144;2022-08-16T04:24:30;4.43;;;3.67;;
47431;SDS011;33183;52.290;6.144;2022-08-16T04:26:55;3.85;;;3.20;;
47431;SDS011;33183;52.290;6.144;2022-08-16T04:29:21;3.92;;;3.60;;
47431;SDS011;33183;52.290;6.144;2022-08-16T04:31:47;5.20;;;3.45;;
47431;SDS011;33183;52.290;6.144;2022-08-16T04:34:12;3.40;;;3.10;;
47431;SDS011;33183;52.290;6.144;2022-08-16T04:36:38;4.32;;;3.63;;
47431;SDS011;33183;52.290;6.144;2022-08-16T04:39:04;3.53;;;3.22;;
47431;SDS011;33183;52.290;6.144;2022-08-16T04:41:29;4.10;;;3.60;;
47431;SDS011;33183;52.290;6.144;2022-08-16T04:43:55;3.83;;;3.40;;
47431;SDS011;33183;52.290;6.144;2022-08-16T04:46:20;4.35;;;3.30;;
47431;SDS011;33183;52.290;6.144;2022-08-16T04:48:46;4.22;;;3.50;;
47431;SDS011;33183;52.290;6.144;2022-08-16T04:51:11;3.88;;;3.55;;
47431;SDS011;33183;52.290;6.144;2022-08-16T04:53:36;5.97;;;3.67;;
47431;SDS011;33183;52.290;6.144;2022-08-16T04:56:02;4.43;;;3.67;;
47431;SDS011;33183;52.290;6.144;2022-08-16T04:58:28;4.47;;;3.53;;
47431;SDS011;33183;52.290;6.144;2022-08-16T05:00:55;4.03;;;3.47;;
47431;SDS011;33183;52.290;6.144;2022-08-16T05:03:22;3.85;;;3.40;;
47431;SDS011;33183;52.290;6.144;2022-08-16T05:05:47;4.32;;;3.92;;
47431;SDS011;33183;52.290;6.144;2022-08-16T05:08:13;4.22;;;3.72;;
47431;SDS011;33183;52.290;6.144;2022-08-16T05:10:38;4.53;;;3.50;;
47431;SDS011;33183;52.290;6.144;2022-08-16T05:13:04;3.97;;;3.58;;
47431;SDS011;33183;52.290;6.144;2022-08-16T05:15:29;4.20;;;3.60;;
47431;SDS011;33183;52.290;6.144;2022-08-16T05:17:55;3.92;;;3.55;;
47431;SDS011;33183;52.290;6.144;2022-08-16T05:20:20;3.30;;;2.92;;
47431;SDS011;33183;52.290;6.144;2022-08-16T05:22:46;4.65;;;3.50;;
47431;SDS011;33183;52.290;6.144;2022-08-16T05:25:11;3.97;;;3.30;;
47431;SDS011;33183;52.290;6.144;2022-08-16T05:27:37;4.78;;;3.50;;
47431;SDS011;33183;52.290;6.144;2022-08-16T05:30:04;4.68;;;3.80;;
47431;SDS011;33183;52.290;6.144;2022-08-16T05:32:30;3.47;;;3.17;;
47431;SDS011;33183;52.290;6.144;2022-08-16T05:34:56;3.50;;;3.20;;
47431;SDS011;33183;52.290;6.144;2022-08-16T05:37:21;3.70;;;3.30;;
47431;SDS011;33183;52.290;6.144;2022-08-16T05:39:48;3.67;;;3.35;;
47431;SDS011;33183;52.290;6.144;2022-08-16T05:42:14;4.07;;;3.60;;
47431;SDS011;33183;52.290;6.144;2022-08-16T05:44:39;4.20;;;3.50;;
47431;SDS011;33183;52.290;6.144;2022-08-16T05:47:05;4.25;;;3.17;;
47431;SDS011;33183;52.290;6.144;2022-08-16T05:49:30;3.67;;;3.38;;
47431;SDS011;33183;52.290;6.144;2022-08-16T05:51:55;3.60;;;3.30;;
47431;SDS011;33183;52.290;6.144;2022-08-16T05:54:21;3.33;;;3.03;;
47431;SDS011;33183;52.290;6.144;2022-08-16T05:56:46;3.60;;;3.30;;
47431;SDS011;33183;52.290;6.144;2022-08-16T05:59:12;4.00;;;3.60;;
47431;SDS011;33183;52.290;6.144;2022-08-16T06:01:39;4.00;;;3.60;;
47431;SDS011;33183;52.290;6.144;2022-08-16T06:04:06;4.10;;;3.63;;
47431;SDS011;33183;52.290;6.144;2022-08-16T06:06:32;3.35;;;3.00;;
47431;SDS011;33183;52.290;6.144;2022-08-16T06:08:57;3.92;;;3.53;;
47431;SDS011;33183;52.290;6.144;2022-08-16T06:11:22;3.95;;;3.55;;
47431;SDS011;33183;52.290;6.144;2022-08-16T06:13:47;6.80;;;3.40;;
47431;SDS011;33183;52.290;6.144;2022-08-16T06:16:13;4.07;;;3.67;;
47431;SDS011;33183;52.290;6.144;2022-08-16T06:18:38;5.50;;;3.97;;
47431;SDS011;33183;52.290;6.144;2022-08-16T06:21:03;4.95;;;3.70;;
47431;SDS011;33183;52.290;6.144;2022-08-16T06:23:28;4.13;;;3.70;;
47431;SDS011;33183;52.290;6.144;2022-08-16T06:25:55;4.28;;;3.53;;
47431;SDS011;33183;52.290;6.144;2022-08-16T06:28:20;3.67;;;3.20;;
47431;SDS011;33183;52.290;6.144;2022-08-16T06:30:46;3.90;;;3.45;;
47431;SDS011;33183;52.290;6.144;2022-08-16T06:33:15;4.75;;;3.60;;
47431;SDS011;33183;52.290;6.144;2022-08-16T06:35:41;4.90;;;3.50;;
47431;SDS011;33183;52.290;6.144;2022-08-16T06:38:07;3.92;;;3.53;;
47431;SDS011;33183;52.290;6.144;2022-08-16T06:40:33;3.75;;;3.35;;
47431;SDS011;33183;52.290;6.144;2022-08-16T06:42:58;4.13;;;3.47;;
47431;SDS011;33183;52.290;6.144;2022-08-16T06:45:23;3.97;;;3.47;;
47431;SDS011;33183;52.290;6.144;2022-08-16T06:47:49;4.60;;;3.45;;
47431;SDS011;33183;52.290;6.144;2022-08-16T06:50:14;3.97;;;3.58;;
47431;SDS011;33183;52.290;6.144;2022-08-16T06:52:40;4.90;;;4.30;;
47431;SDS011;33183;52.290;6.144;2022-08-16T06:55:07;4.82;;;3.88;;
47431;SDS011;33183;52.290;6.144;2022-08-16T06:57:33;3.58;;;3.28;;
47431;SDS011;33183;52.290;6.144;2022-08-16T06:59:59;3.83;;;3.20;;
47431;SDS011;33183;52.290;6.144;2022-08-16T07:02:24;3.80;;;3.40;;
47431;SDS011;33183;52.290;6.144;2022-08-16T07:04:50;4.22;;;3.80;;
47431;SDS011;33183;52.290;6.144;2022-08-16T07:07:17;4.15;;;3.70;;
47431;SDS011;33183;52.290;6.144;2022-08-16T07:09:44;3.83;;;3.42;;
47431;SDS011;33183;52.290;6.144;2022-08-16T07:12:09;4.70;;;4.30;;
47431;SDS011;33183;52.290;6.144;2022-08-16T07:14:34;3.95;;;3.60;;
47431;SDS011;33183;52.290;6.144;2022-08-16T07:17:00;4.03;;;3.63;;
47431;SDS011;33183;52.290;6.144;2022-08-16T07:19:26;4.53;;;3.70;;
47431;SDS011;33183;52.290;6.144;2022-08-16T07:21:52;4.68;;;4.28;;
47431;SDS011;33183;52.290;6.144;2022-08-16T07:24:17;3.75;;;3.45;;
47431;SDS011;33183;52.290;6.144;2022-08-16T07:26:43;4.40;;;3.85;;
47431;SDS011;33183;52.290;6.144;2022-08-16T07:29:08;4.00;;;3.60;;
47431;SDS011;33183;52.290;6.144;2022-08-16T07:31:34;4.18;;;3.78;;
47431;SDS011;33183;52.290;6.144;2022-08-16T07:33:59;3.75;;;3.45;;
47431;SDS011;33183;52.290;6.144;2022-08-16T07:36:24;3.95;;;3.55;;
47431;SDS011;33183;52.290;6.144;2022-08-16T07:38:50;4.47;;;3.97;;
47431;SDS011;33183;52.290;6.144;2022-08-16T07:41:16;4.20;;;3.80;;
47431;SDS011;33183;52.290;6.144;2022-08-16T07:43:41;4.43;;;4.03;;
47431;SDS011;33183;52.290;6.144;2022-08-16T07:46:07;5.28;;;4.03;;
47431;SDS011;33183;52.290;6.144;2022-08-16T07:48:33;5.65;;;4.32;;
47431;SDS011;33183;52.290;6.144;2022-08-16T07:50:58;4.35;;;3.95;;
47431;SDS011;33183;52.290;6.144;2022-08-16T07:53:24;4.40;;;4.05;;
47431;SDS011;33183;52.290;6.144;2022-08-16T07:55:50;6.43;;;3.58;;
47431;SDS011;33183;52.290;6.144;2022-08-16T07:58:16;4.75;;;4.03;;
47431;SDS011;33183;52.290;6.144;2022-08-16T08:00:42;4.80;;;3.92;;
47431;SDS011;33183;52.290;6.144;2022-08-16T08:03:07;5.70;;;4.80;;
47431;SDS011;33183;52.290;6.144;2022-08-16T08:05:33;5.28;;;4.10;;
47431;SDS011;33183;52.290;6.144;2022-08-16T08:07:58;4.53;;;3.75;;
47431;SDS011;33183;52.290;6.144;2022-08-16T08:10:24;4.78;;;4.07;;
47431;SDS011;33183;52.290;6.144;2022-08-16T08:12:50;5.13;;;4.63;;
47431;SDS011;33183;52.290;6.144;2022-08-16T08:15:17;4.30;;;3.90;;
47431;SDS011;33183;52.290;6.144;2022-08-16T08:17:43;4.30;;;3.90;;
47431;SDS011;33183;52.290;6.144;2022-08-16T08:20:10;5.35;;;4.45;;
47431;SDS011;33183;52.290;6.144;2022-08-16T08:22:37;4.22;;;3.83;;
47431;SDS011;33183;52.290;6.144;2022-08-16T08:25:03;6.35;;;4.22;;
47431;SDS011;33183;52.290;6.144;2022-08-16T08:27:29;4.88;;;4.38;;
47431;SDS011;33183;52.290;6.144;2022-08-16T08:29:54;5.40;;;4.57;;
47431;SDS011;33183;52.290;6.144;2022-08-16T08:32:19;4.18;;;3.85;;
47431;SDS011;33183;52.290;6.144;2022-08-16T08:34:45;4.68;;;4.05;;
47431;SDS011;33183;52.290;6.144;2022-08-16T08:37:11;4.28;;;3.88;;
47431;SDS011;33183;52.290;6.144;2022-08-16T08:39:36;4.13;;;3.72;;
47431;SDS011;33183;52.290;6.144;2022-08-16T08:42:05;4.57;;;4.15;;
47431;SDS011;33183;52.290;6.144;2022-08-16T08:44:31;4.63;;;4.22;;
47431;SDS011;33183;52.290;6.144;2022-08-16T08:46:58;4.55;;;4.15;;
47431;SDS011;33183;52.290;6.144;2022-08-16T08:49:24;4.78;;;4.32;;
47431;SDS011;33183;52.290;6.144;2022-08-16T08:51:49;4.25;;;3.80;;
47431;SDS011;33183;52.290;6.144;2022-08-16T08:54:15;4.70;;;4.30;;
47431;SDS011;33183;52.290;6.144;2022-08-16T08:56:40;4.20;;;3.80;;
47431;SDS011;33183;52.290;6.144;2022-08-16T08:59:06;4.20;;;3.90;;
47431;SDS011;33183;52.290;6.144;2022-08-16T09:01:32;3.80;;;3.47;;
47431;SDS011;33183;52.290;6.144;2022-08-16T09:03:59;4.75;;;4.30;;
47431;SDS011;33183;52.290;6.144;2022-08-16T09:06:27;3.70;;;3.33;;
47431;SDS011;33183;52.290;6.144;2022-08-16T09:08:52;4.57;;;4.10;;
47431;SDS011;33183;52.290;6.144;2022-08-16T09:11:18;4.93;;;3.95;;
47431;SDS011;33183;52.290;6.144;2022-08-16T09:13:43;4.28;;;3.97;;
47431;SDS011;33183;52.290;6.144;2022-08-16T09:16:08;4.30;;;3.90;;
47431;SDS011;33183;52.290;6.144;2022-08-16T09:18:34;4.30;;;3.90;;
47431;SDS011;33183;52.290;6.144;2022-08-16T09:20:59;4.10;;;3.72;;
47431;SDS011;33183;52.290;6.144;2022-08-16T09:23:24;4.00;;;3.70;;
47431;SDS011;33183;52.290;6.144;2022-08-16T09:25:49;4.28;;;3.88;;
47431;SDS011;33183;52.290;6.144;2022-08-16T09:28:15;4.03;;;3.63;;
47431;SDS011;33183;52.290;6.144;2022-08-16T09:30:41;4.70;;;3.90;;
47431;SDS011;33183;52.290;6.144;2022-08-16T09:33:06;4.18;;;3.70;;
47431;SDS011;33183;52.290;6.144;2022-08-16T09:35:32;3.92;;;3.63;;
47431;SDS011;33183;52.290;6.144;2022-08-16T09:37:59;4.20;;;3.80;;
47431;SDS011;33183;52.290;6.144;2022-08-16T09:40:25;3.85;;;3.53;;
47431;SDS011;33183;52.290;6.144;2022-08-16T09:42:50;4.13;;;3.72;;
47431;SDS011;33183;52.290;6.144;2022-08-16T09:45:18;4.00;;;3.60;;
47431;SDS011;33183;52.290;6.144;2022-08-16T09:47:43;3.90;;;3.50;;
47431;SDS011;33183;52.290;6.144;2022-08-16T09:50:09;4.57;;;4.18;;
47431;SDS011;33183;52.290;6.144;2022-08-16T09:52:36;3.72;;;3.42;;
47431;SDS011;33183;52.290;6.144;2022-08-16T09:55:06;3.88;;;3.55;;
47431;SDS011;33183;52.290;6.144;2022-08-16T09:57:33;4.45;;;3.88;;
47431;SDS011;33183;52.290;6.144;2022-08-16T09:59:59;3.90;;;3.60;;
47431;SDS011;33183;52.290;6.144;2022-08-16T10:02:27;4.35;;;3.97;;
47431;SDS011;33183;52.290;6.144;2022-08-16T10:04:54;3.90;;;3.60;;
47431;SDS011;33183;52.290;6.144;2022-08-16T10:07:21;4.32;;;3.92;;
47431;SDS011;33183;52.290;6.144;2022-08-16T10:09:47;3.58;;;3.28;;
47431;SDS011;33183;52.290;6.144;2022-08-16T10:12:12;3.78;;;3.33;;
47431;SDS011;33183;52.290;6.144;2022-08-16T10:14:56;3.92;;;3.50;;
47431;SDS011;33183;52.290;6.144;2022-08-16T10:17:21;4.25;;;3.70;;
47431;SDS011;33183;52.290;6.144;2022-08-16T10:19:48;3.75;;;3.45;;
47431;SDS011;33183;52.290;6.144;2022-08-16T10:22:15;3.70;;;3.40;;
47431;SDS011;33183;52.290;6.144;2022-08-16T10:24:41;3.65;;;3.33;;
47431;SDS011;33183;52.290;6.144;2022-08-16T10:27:06;4.45;;;3.83;;
47431;SDS011;33183;52.290;6.144;2022-08-16T10:29:32;4.22;;;3.53;;
47431;SDS011;33183;52.290;6.144;2022-08-16T10:31:58;3.47;;;3.17;;
47431;SDS011;33183;52.290;6.144;2022-08-16T10:34:24;3.60;;;3.30;;
47431;SDS011;33183;52.290;6.144;2022-08-16T10:36:49;3.40;;;3.10;;
47431;SDS011;33183;52.290;6.144;2022-08-16T10:39:14;3.63;;;3.30;;
47431;SDS011;33183;52.290;6.144;2022-08-16T10:41:40;3.88;;;3.30;;
47431;SDS011;33183;52.290;6.144;2022-08-16T10:44:05;4.45;;;3.83;;
47431;SDS011;33183;52.290;6.144;2022-08-16T10:46:30;3.20;;;2.85;;
47431;SDS011;33183;52.290;6.144;2022-08-16T10:48:56;3.33;;;3.00;;
47431;SDS011;33183;52.290;6.144;2022-08-16T10:51:21;3.90;;;3.60;;
47431;SDS011;33183;52.290;6.144;2022-08-16T10:53:47;4.32;;;2.95;;
47431;SDS011;33183;52.290;6.144;2022-08-16T10:56:12;3.63;;;3.33;;
47431;SDS011;33183;52.290;6.144;2022-08-16T10:58:38;3.65;;;3.30;;
47431;SDS011;33183;52.290;6.144;2022-08-16T11:01:05;3.40;;;3.10;;
47431;SDS011;33183;52.290;6.144;2022-08-16T11:03:32;2.97;;;2.67;;
47431;SDS011;33183;52.290;6.144;2022-08-16T11:05:57;3.20;;;2.90;;
47431;SDS011;33183;52.290;6.144;2022-08-16T11:08:23;3.33;;;3.03;;
47431;SDS011;33183;52.290;6.144;2022-08-16T11:10:48;3.63;;;3.00;;
47431;SDS011;33183;52.290;6.144;2022-08-16T11:13:16;3.28;;;2.97;;
47431;SDS011;33183;52.290;6.144;2022-08-16T11:15:43;3.50;;;3.13;;
47431;SDS011;33183;52.290;6.144;2022-08-16T11:18:09;3.33;;;3.03;;
47431;SDS011;33183;52.290;6.144;2022-08-16T11:20:35;4.75;;;3.20;;
47431;SDS011;33183;52.290;6.144;2022-08-16T11:23:01;3.00;;;2.67;;
47431;SDS011;33183;52.290;6.144;2022-08-16T11:25:27;3.60;;;3.30;;
47431;SDS011;33183;52.290;6.144;2022-08-16T11:27:54;3.03;;;2.50;;
47431;SDS011;33183;52.290;6.144;2022-08-16T11:30:21;4.15;;;2.92;;
47431;SDS011;33183;52.290;6.144;2022-08-16T11:32:47;3.28;;;2.97;;
47431;SDS011;33183;52.290;6.144;2022-08-16T11:35:14;3.50;;;3.20;;
47431;SDS011;33183;52.290;6.144;2022-08-16T11:37:42;3.65;;;3.08;;
47431;SDS011;33183;52.290;6.144;2022-08-16T11:40:10;4.10;;;3.50;;
47431;SDS011;33183;52.290;6.144;2022-08-16T11:42:36;3.45;;;3.15;;
47431;SDS011;33183;52.290;6.144;2022-08-16T11:45:02;3.30;;;3.00;;
47431;SDS011;33183;52.290;6.144;2022-08-16T11:47:27;3.63;;;3.00;;
47431;SDS011;33183;52.290;6.144;2022-08-16T11:49:53;3.25;;;2.95;;
47431;SDS011;33183;52.290;6.144;2022-08-16T11:52:18;3.30;;;2.90;;
47431;SDS011;33183;52.290;6.144;2022-08-16T11:54:44;3.58;;;3.28;;
47431;SDS011;33183;52.290;6.144;2022-08-16T11:57:10;5.18;;;3.20;;
47431;SDS011;33183;52.290;6.144;2022-08-16T11:59:36;3.30;;;3.00;;
47431;SDS011;33183;52.290;6.144;2022-08-16T12:02:02;4.90;;;3.17;;
47431;SDS011;33183;52.290;6.144;2022-08-16T12:04:30;4.65;;;2.85;;
47431;SDS011;33183;52.290;6.144;2022-08-16T12:06:56;3.88;;;3.40;;
47431;SDS011;33183;52.290;6.144;2022-08-16T12:09:21;4.03;;;3.00;;
47431;SDS011;33183;52.290;6.144;2022-08-16T12:11:48;5.22;;;2.90;;
47431;SDS011;33183;52.290;6.144;2022-08-16T12:14:13;3.15;;;2.85;;
47431;SDS011;33183;52.290;6.144;2022-08-16T12:16:38;4.03;;;3.28;;
47431;SDS011;33183;52.290;6.144;2022-08-16T12:19:05;3.17;;;2.88;;
47431;SDS011;33183;52.290;6.144;2022-08-16T12:21:32;3.25;;;2.80;;
47431;SDS011;33183;52.290;6.144;2022-08-16T12:23:58;3.38;;;3.08;;
47431;SDS011;33183;52.290;6.144;2022-08-16T12:26:23;3.70;;;3.20;;
47431;SDS011;33183;52.290;6.144;2022-08-16T12:28:48;3.33;;;2.97;;
47431;SDS011;33183;52.290;6.144;2022-08-16T12:31:17;3.00;;;2.70;;
47431;SDS011;33183;52.290;6.144;2022-08-16T12:33:43;4.22;;;3.40;;
47431;SDS011;33183;52.290;6.144;2022-08-16T12:36:08;3.78;;;3.33;;
47431;SDS011;33183;52.290;6.144;2022-08-16T12:38:34;3.30;;;3.00;;
47431;SDS011;33183;52.290;6.144;2022-08-16T12:40:59;3.17;;;2.88;;
47431;SDS011;33183;52.290;6.144;2022-08-16T12:43:25;4.63;;;3.40;;
47431;SDS011;33183;52.290;6.144;2022-08-16T12:45:51;4.15;;;3.30;;
47431;SDS011;33183;52.290;6.144;2022-08-16T12:48:19;4.32;;;3.40;;
47431;SDS011;33183;52.290;6.144;2022-08-16T12:51:06;4.53;;;3.42;;
47431;SDS011;33183;52.290;6.144;2022-08-16T12:56:00;3.15;;;2.85;;
47431;SDS011;33183;52.290;6.144;2022-08-16T12:58:25;4.65;;;3.38;;
47431;SDS011;33183;52.290;6.144;2022-08-16T13:00:52;3.60;;;3.00;;
47431;SDS011;33183;52.290;6.144;2022-08-16T13:03:18;3.92;;;2.92;;
47431;SDS011;33183;52.290;6.144;2022-08-16T13:05:44;3.33;;;2.88;;
47431;SDS011;33183;52.290;6.144;2022-08-16T13:08:11;2.95;;;2.60;;
47431;SDS011;33183;52.290;6.144;2022-08-16T13:10:40;3.78;;;2.95;;
47431;SDS011;33183;52.290;6.144;2022-08-16T13:13:09;3.30;;;2.90;;
47431;SDS011;33183;52.290;6.144;2022-08-16T13:15:34;3.20;;;2.90;;
47431;SDS011;33183;52.290;6.144;2022-08-16T13:18:00;3.50;;;3.00;;
47431;SDS011;33183;52.290;6.144;2022-08-16T13:20:26;4.07;;;3.30;;
47431;SDS011;33183;52.290;6.144;2022-08-16T13:23:02;3.95;;;3.15;;
47431;SDS011;33183;52.290;6.144;2022-08-16T13:25:30;3.05;;;2.70;;
47431;SDS011;33183;52.290;6.144;2022-08-16T13:27:57;3.15;;;2.85;;
47431;SDS011;33183;52.290;6.144;2022-08-16T13:30:24;3.08;;;2.80;;
47431;SDS011;33183;52.290;6.144;2022-08-16T13:32:50;3.40;;;2.97;;
47431;SDS011;33183;52.290;6.144;2022-08-16T13:35:16;4.07;;;3.20;;
47431;SDS011;33183;52.290;6.144;2022-08-16T13:37:42;4.25;;;2.95;;
47431;SDS011;33183;52.290;6.144;2022-08-16T13:40:07;3.25;;;2.95;;
47431;SDS011;33183;52.290;6.144;2022-08-16T13:42:33;3.35;;;2.95;;
47431;SDS011;33183;52.290;6.144;2022-08-16T13:44:59;3.38;;;3.08;;
47431;SDS011;33183;52.290;6.144;2022-08-16T13:47:24;3.58;;;2.65;;
47431;SDS011;33183;52.290;6.144;2022-08-16T13:49:50;2.70;;;2.50;;
47431;SDS011;33183;52.290;6.144;2022-08-16T13:52:16;3.60;;;3.13;;
47431;SDS011;33183;52.290;6.144;2022-08-16T13:54:41;3.10;;;2.80;;
47431;SDS011;33183;52.290;6.144;2022-08-16T13:57:06;3.13;;;2.83;;
47431;SDS011;33183;52.290;6.144;2022-08-16T13:59:31;3.80;;;2.97;;
47431;SDS011;33183;52.290;6.144;2022-08-16T14:01:57;2.90;;;2.63;;
47431;SDS011;33183;52.290;6.144;2022-08-16T14:04:31;4.18;;;3.03;;
47431;SDS011;33183;52.290;6.144;2022-08-16T14:07:03;3.05;;;2.75;;
47431;SDS011;33183;52.290;6.144;2022-08-16T14:09:31;3.65;;;3.10;;
47431;SDS011;33183;52.290;6.144;2022-08-16T14:11:58;4.50;;;2.97;;
47431;SDS011;33183;52.290;6.144;2022-08-16T14:14:24;3.55;;;3.15;;
47431;SDS011;33183;52.290;6.144;2022-08-16T14:16:50;3.10;;;2.80;;
47431;SDS011;33183;52.290;6.144;2022-08-16T14:19:15;3.25;;;2.95;;
47431;SDS011;33183;52.290;6.144;2022-08-16T14:21:45;3.50;;;3.20;;
47431;SDS011;33183;52.290;6.144;2022-08-16T14:24:11;3.30;;;3.00;;
47431;SDS011;33183;52.290;6.144;2022-08-16T14:26:40;3.05;;;2.75;;
47431;SDS011;33183;52.290;6.144;2022-08-16T14:29:06;3.08;;;2.78;;
47431;SDS011;33183;52.290;6.144;2022-08-16T14:31:31;3.67;;;2.80;;
47431;SDS011;33183;52.290;6.144;2022-08-16T14:33:57;3.72;;;3.03;;
47431;SDS011;33183;52.290;6.144;2022-08-16T14:36:22;3.45;;;3.15;;
47431;SDS011;33183;52.290;6.144;2022-08-16T14:38:48;3.13;;;2.80;;
47431;SDS011;33183;52.290;6.144;2022-08-16T14:41:13;3.65;;;3.35;;
47431;SDS011;33183;52.290;6.144;2022-08-16T14:43:38;3.30;;;3.00;;
47431;SDS011;33183;52.290;6.144;2022-08-16T14:46:04;3.33;;;2.85;;